DATI METEO

IERI
Time Temp. P.to rug.. Umid. Direzion Velocità d Wind gust Press. 1h Prec. 24h Prec.
00:07 10.3 8.1 86 26 0.3 1.1 1024.9 0.0000 0.0000
00:17 10.1 7.9 86 45 0.3 0.8 1024.8 0.0000 0.0000
00:37 9.8 7.6 86 225 0.3 0.8 1024.8 0.0000 0.0000
00:47 9.7 7.5 86 270 0.3 0.8 1024.9 0.0000 0.0000
00:58 9.6 7.4 86 45 0.3 0.8 1024.9 0.0000 0.0000
01:08 9.5 7.3 86 90 0.3 1.1 1024.9 0.0000 0.0000
01:17 9.4 7.2 86 45 0.3 1.1 1024.9 0.0000 0.0000
01:27 9.3 7.1 86 57 0.3 0.8 1024.8 0.0000 0.0000
01:38 9.2 7 86 225 0.3 0.8 1024.9 0.0000 0.0000
01:48 9.1 6.9 86 206 0.3 0.8 1024.8 0.0000 0.0000
01:57 9 7 87 235 0.3 1.1 1025.2 0.0000 0.0000
02:08 9 7 87 270 0.3 1.1 1025.2 0.0000 0.0000
02:18 9 7 87 90 0.3 1.1 1025 0.0000 0.0000
02:28 8.9 6.9 87 225 0.8 1.1 1024.9 0.0000 0.0000
02:38 8.8 6.6 86 230 0.3 0.8 1025 0.0000 0.0000
02:48 8.7 6.5 86 270 0.3 1.1 1024.9 0.0000 0.0000
02:58 8.7 6.7 87 90 0.3 0.8 1024.9 0.0000 0.0000
03:08 8.6 6.6 87 216 0.3 0.8 1025 0.0000 0.0000
03:19 8.6 6.6 87 235 0.3 1.1 1024.9 0.0000 0.0000
03:28 8.5 6.5 87 206 0.3 1.1 1024.9 0.0000 0.0000
03:38 8.4 6.2 86 236 0.3 1.1 1024.9 0.0000 0.0000
03:48 8.4 6.2 86 219 0.3 1.1 1024.8 0.0000 0.0000
03:59 8.2 6 86 214 0.3 1.1 1024.8 0.0000 0.0000
04:08 8.1 5.9 86 203 0.3 1.1 1024.6 0.0000 0.0000
04:18 8.1 5.9 86 225 0.3 0.8 1024.8 0.0000 0.0000
04:29 7.9 5.9 87 219 0.3 1.1 1024.9 0.0000 0.0000
04:39 7.9 5.9 87 270 0.3 1.1 1024.7 0.0000 0.0000
04:48 7.8 5.8 87 240 0.3 1.1 1024.9 0.0000 0.0000
04:58 7.8 5.8 87 270 0.3 0.8 1025 0.0000 0.0000
05:09 7.6 5.6 87 270 0.3 1.1 1025 0.0000 0.0000
05:19 7.6 5.6 87 234 0.3 0.8 1025.3 0.0000 0.0000
05:28 7.5 5.5 87 338 0.3 1.1 1025.4 0.1010 0.1000
05:39 7.5 5.5 87 240 0.3 0.8 1025.4 0.1010 0.1000
05:49 7.5 5.5 87 336 0.3 0.8 1025.7 0.1010 0.1000
05:59 7.5 5.5 87 239 0.3 0.8 1025.7 0.1010 0.1000
06:09 7.5 5.5 87 270 0.3 0.8 1025.7 0.1010 0.1000
06:19 7.4 5.4 87 321 0.3 1.1 1025.9 0.1010 0.1000
06:29 7.4 5.4 87 270 0.3 0.8 1025.8 0.0000 0.1000
06:39 7.4 5.4 87 270 0.3 0.8 1026.1 0.0000 0.1000
06:49 7.4 5.4 87 270 0.3 1.4 1026.1 0.0000 0.1000
06:59 7.4 5.5 88 270 0.3 0.8 1026.1 0.0000 0.1000
07:09 8.5 6.8 89 315 0.3 0.8 1026.2 0.0000 0.1000
07:19 9.9 8 88 270 0.3 0.8 1026.2 0.0000 0.1000
07:29 11 8.8 86 14 1.1 1.7 1026.3 0.0000 0.1000
07:39 12.1 9.7 85 0 0.8 1.4 1026.3 0.0000 0.1000
07:49 13.1 10.1 82 5 0.3 1.1 1026.4 0.0000 0.1000
08:00 14.1 10.5 79 71 0.8 1.1 1026.3 0.0000 0.1000
08:10 14.8 10.2 74 71 0.8 1.1 1026.3 0.0000 0.1000
08:19 14.9 10.1 73 45 0.8 1.4 1026.4 0.0000 0.1000
08:30 15.1 10.1 72 40 0.8 1.4 1026.3 0.0000 0.1000
08:40 15.2 10.4 73 180 0.8 1.1 1026.4 0.0000 0.1000
08:50 15.2 10.2 72 168 0.3 1.1 1026.4 0.0000 0.1000
08:59 14.8 10 73 135 0.8 2.2 1026.4 0.0000 0.1000
09:10 14.9 10.1 73 163 0.8 1.7 1026.3 0.0000 0.1000
09:20 15 10.2 73 118 0.8 1.4 1026.4 0.0000 0.1000
09:30 15.4 10.4 72 135 0.3 1.4 1026.4 0.0000 0.1000
09:40 15.3 10.3 72 126 0.3 0.8 1026.3 0.0000 0.1000
09:50 14.9 9.9 72 171 0.3 1.1 1026.4 0.0000 0.1000
10:00 15 10 72 90 0.3 1.1 1026.3 0.0000 0.1000
10:10 15.1 10.1 72 129 0.8 1.7 1026.3 0.0000 0.1000
10:20 15.3 10.3 72 90 0.8 1.7 1026.2 0.0000 0.1000
10:30 15.6 10.6 72 129 1.1 3.1 1026.2 0.0000 0.1000
10:40 15.8 10.3 70 135 1.1 2.2 1025.9 0.0000 0.1000
10:50 15.9 10.2 69 135 0.8 2.5 1026.1 0.0000 0.1000
11:00 16 10.3 69 120 0.8 2.8 1026.2 0.0000 0.1000
11:10 16.5 10.4 67 135 1.1 3.1 1026.2 0.0000 0.1000
11:20 16.5 10.4 67 163 0.8 1.7 1026.1 0.0000 0.1000
11:31 16.4 10 66 104 0.8 2.2 1026.2 0.0000 0.1000
11:40 16.5 10.4 67 153 0.3 1.4 1026.2 0.0000 0.1000
11:50 17 10.6 66 142 1.1 3.6 1026.2 0.0000 0.1000
12:01 17.3 10.4 64 135 0.8 2.2 1026.2 0.0000 0.1000
12:11 17.5 10.1 62 45 0.8 2.2 1026.2 0.0000 0.1000
12:20 17.4 10.3 63 90 1.1 3.9 1026.2 0.0000 0.1000
12:30 17.5 10.6 64 173 0.8 1.4 1026.3 0.0000 0.1000
12:41 17.5 10.6 64 161 0.8 1.7 1026.3 0.0000 0.1000
12:51 17.6 10.5 63 142 1.1 2.2 1026.3 0.0000 0.1000
13:01 17.5 10.4 63 141 0.8 1.7 1026.1 0.0000 0.1000
13:11 17.4 10.3 63 90 0.3 1.1 1026.2 0.0000 0.1000
13:21 17.9 11 64 161 0.8 2.8 1026.1 0.0000 0.1000
13:31 18.2 10.8 62 173 0.8 2.5 1025.9 0.0000 0.1000
13:41 18.1 10.5 61 104 0.8 1.7 1026.1 0.0000 0.1000
13:51 18.1 10.7 62 149 0.8 2.2 1025.9 0.0000 0.1000
14:01 18.1 10 59 5 1.1 2.8 1025.8 0.0000 0.1000
14:11 18 9.9 59 135 0.8 3.1 1025.8 0.0000 0.1000
14:22 18.2 10.6 61 146 1.1 3.6 1025.7 0.0000 0.1000
14:31 18.5 10.6 60 315 0.8 2.8 1025.8 0.0000 0.1000
14:41 18.3 10.4 60 130 0.8 2.5 1025.7 0.0000 0.1000
14:51 18.3 10.2 59 157 1.1 2.8 1025.6 0.0000 0.1000
15:02 18.6 10.2 58 151 1.1 2.8 1025.5 0.0000 0.1000
15:11 18.9 10.7 59 139 1.1 4.2 1025.5 0.0000 0.1000
15:21 19.2 10.7 58 158 0.8 2.5 1025.5 0.0000 0.1000
15:32 19.4 10.7 57 142 0.8 1.4 1025.6 0.0000 0.1000
15:42 19.2 10.2 56 128 1.4 3.1 1025.6 0.0000 0.1000
15:51 19 10.3 57 125 1.1 2.5 1025.6 0.0000 0.1000
16:02 18.8 10.1 57 145 1.1 2.8 1025.7 0.0000 0.1000
16:12 18.7 10.5 59 161 0.8 2.2 1025.7 0.0000 0.1000
16:22 18.6 10.2 58 45 0.8 2.5 1025.8 0.0000 0.1000
16:31 18.6 10.2 58 149 1.1 2.8 1025.7 0.0000 0.1000
16:42 18.4 10 58 139 0.8 2.5 1025.7 0.0000 0.1000
16:52 18.3 9.9 58 16 0.8 2.8 1025.7 0.0000 0.1000
17:02 18.4 10.3 59 147 0.8 3.1 1025.6 0.0000 0.1000
17:12 18.4 10.3 59 126 1.1 2.8 1025.7 0.0000 0.1000
17:22 18.4 10.5 60 161 0.8 2.8 1025.6 0.0000 0.1000
17:32 18.2 9.8 58 132 1.1 3.6 1025.6 0.0000 0.1000
17:42 18.2 9.8 58 153 0.8 1.7 1025.6 0.0000 0.1000
17:53 18.3 9.9 58 0 0.8 2.2 1025.6 0.0000 0.1000
18:02 18.2 9.8 58 57 1.1 3.6 1025.7 0.0000 0.1000
18:12 17.9 9.8 59 198 0.8 2.5 1025.7 0.0000 0.1000
18:22 17.7 9.8 60 135 1.1 3.6 1025.8 0.0000 0.1000
18:33 17.6 10 61 121 0.8 2.5 1025.7 0.0000 0.1000
18:42 17.4 9.8 61 127 0.8 2.2 1025.8 0.0000 0.1000
18:52 17.2 9.6 61 137 1.1 2.2 1025.7 0.0000 0.1000
19:03 17.1 9.5 61 149 0.8 1.7 1025.9 0.0000 0.1000
19:13 17 9.7 62 125 0.8 2.2 1025.9 0.0000 0.1000
19:22 16.9 9.6 62 40 0.8 1.4 1026.1 0.0000 0.1000
19:33 16.7 9.9 64 41 0.8 1.7 1026.1 0.0000 0.1000
19:43 16.4 9.3 63 45 0.8 1.7 1026.2 0.0000 0.1000
19:53 16.2 9.6 65 48 0.3 1.4 1026.1 0.0000 0.1000
20:02 16 9.7 66 40 0.3 1.4 1026.3 0.0000 0.1000
20:13 15.8 9.7 67 37 0.3 1.4 1026.2 0.0000 0.1000
20:23 15.5 9.6 68 52 0.8 1.4 1026.3 0.0000 0.1000
20:33 15.2 9.3 68 45 0.3 1.1 1026.3 0.0000 0.1000
20:43 15 9.6 70 45 0.3 1.1 1026.4 0.0000 0.1000
20:53 14.8 9.4 70 45 0.8 1.1 1026.4 0.0000 0.1000
21:03 14.5 9.3 71 36 0.3 1.1 1026.6 0.0000 0.1000
21:13 14.2 9.2 72 38 0.3 1.1 1026.7 0.0000 0.1000
21:23 13.9 8.9 72 45 0.3 1.1 1026.9 0.0000 0.1000
21:33 13.6 8.9 73 90 0.3 0.8 1026.9 0.0000 0.1000
21:43 13.4 8.7 73 45 0.3 0.8 1027 0.0000 0.1000
21:54 13.1 8.6 74 45 0.3 0.8 1027.2 0.0000 0.1000
22:04 12.9 8.4 74 48 0.3 1.1 1027.3 0.0000 0.1000
22:13 12.8 8.5 75 45 0.3 1.4 1027.3 0.0000 0.1000
22:23 12.7 8.4 75 90 0.3 1.1 1027.4 0.0000 0.1000
22:34 12.6 8.3 75 45 0.3 1.1 1027.4 0.0000 0.1000
22:44 12.5 8.4 76 45 0.3 1.1 1027.3 0.0000 0.1000
22:53 12.4 8.3 76 90 0.3 0.8 1027.4 0.0000 0.1000
23:04 12.2 8.1 76 26 0.3 1.1 1027.5 0.0000 0.1000
23:14 12 7.9 76 45 0.3 1.1 1027.3 0.0000 0.1000
23:24 11.8 7.7 76 53 0.3 0.8 1027.4 0.0000 0.1000
23:33 11.7 7.6 76 45 0.3 0.8 1027.4 0.0000 0.1000
23:44 11.6 7.7 77 90 0.3 0.8 1027.5 0.0000 0.1000
23:54 11.4 7.5 77 39 0.3 0.8 1027.7 0.0000

STATISTICHE GIORNALIERE

2020-07-12
TEMPERATURA
MEDIA
13.8
MASSIMA
19.4
15:32
MINIMA
7.4
06:19
PRESSIONE
MEDIA
1025.9
MASSIMA
1027.7
23:54
MINIMA
1024.6
04:08
PUNTO DI RUGIADA
MEDIA
8.8
MASSIMA
11.0
13:21
MINIMA
5.4
06:19
UMIDITÀ
MEDIA
73
MASSIMA
89
07:09
MINIMA
56
15:42
VELOCITÀ DEL VENTO
MEDIA
0.6
MASSIMA
1.4
15:42
WIND GUST
MEDIA
1.6
MASSIMA
4.2
15:11
DIREZIONE DEL VENTO
PREVALENTE
SE
26.8%
N
4.9
NE
23.9
E
10.6
SE
26.8
S
9.9
SO
12.7
O
8.5
NO
2.8
PRECIPITAZIONI
ORA DI PIOGGIA
0.1
GIORNO DI PIOGGIA
0.1
TEMPERATURA (°C)
MINIMA
7.4
MASSIMA
19.4
MEDIA
13.8
PRESSIONE (hpa)
MINIMA
1024.6
MASSIMA
1027.7
MEDIA
1025.9
DEVICE